createdAt,value
2022-12-18T00:00:19.613Z,102046
2022-12-18T00:01:19.977Z,102053.6328125
2022-12-18T00:02:19.468Z,102051.6796875
2022-12-18T00:03:19.659Z,102048.99609375
2022-12-18T00:04:22.617Z,102043.62109375
2022-12-18T00:05:19.571Z,102043.69921875
2022-12-18T00:06:19.962Z,102040.69140625
2022-12-18T00:07:19.583Z,102043.73828125
2022-12-18T00:08:19.625Z,102042.0625
2022-12-18T00:09:19.659Z,102048.21875
2022-12-18T00:10:19.462Z,102051.7578125
2022-12-18T00:11:19.905Z,102050.5390625
2022-12-18T00:12:19.699Z,102050.52734375
2022-12-18T00:13:19.584Z,102048.21875
2022-12-18T00:14:19.539Z,102047.40625
2022-12-18T00:15:22.553Z,102045.6171875
2022-12-18T00:16:19.891Z,102045.22265625
2022-12-18T00:17:19.615Z,102048.59375
2022-12-18T00:18:20.705Z,102049.80078125
2022-12-18T00:19:19.461Z,102051.5703125
2022-12-18T00:20:19.957Z,102056.37890625
2022-12-18T00:21:19.872Z,102057.72265625
2022-12-18T00:22:19.581Z,102060.2421875
2022-12-18T00:23:19.460Z,102056.484375
2022-12-18T00:24:19.553Z,102054.80859375
2022-12-18T00:25:19.599Z,102054.2734375
2022-12-18T00:26:22.570Z,102052.25390625
2022-12-18T00:27:19.577Z,102056.140625
2022-12-18T00:28:19.484Z,102055.8046875
2022-12-18T00:29:19.465Z,102054.4609375
2022-12-18T00:30:19.515Z,102047.91015625
2022-12-18T00:31:19.874Z,102046.66796875
2022-12-18T00:32:19.568Z,102047.1875
2022-12-18T00:33:19.574Z,102049.23046875
2022-12-18T00:34:19.471Z,102052.1015625
2022-12-18T00:35:19.832Z,102048.46484375
2022-12-18T00:36:19.828Z,102048.4765625
2022-12-18T00:37:20.371Z,102047.53125
2022-12-18T00:38:19.463Z,102048.04296875
2022-12-18T00:39:19.460Z,102041.97265625
2022-12-18T00:40:19.587Z,102040.49609375
2022-12-18T00:41:19.838Z,102041.33203125
2022-12-18T00:42:22.527Z,102041.33203125
2022-12-18T00:43:19.530Z,102041.796875
2022-12-18T00:44:19.584Z,102041.8359375
2022-12-18T00:45:19.463Z,102039.05078125
2022-12-18T00:46:19.711Z,102041.4375
2022-12-18T00:47:19.628Z,102039.2109375
2022-12-18T00:48:19.576Z,102041.23046875
2022-12-18T00:49:19.895Z,102041.24609375
2022-12-18T00:50:19.898Z,102042.31640625
2022-12-18T00:51:19.650Z,102043.52734375
2022-12-18T00:52:19.466Z,102047.60546875
2022-12-18T00:53:22.628Z,102052.7421875
2022-12-18T00:54:19.654Z,102054.55078125
2022-12-18T00:55:19.606Z,102058.6796875
2022-12-18T00:56:19.645Z,102060.6328125
2022-12-18T00:57:19.607Z,102058.8984375
2022-12-18T00:58:19.625Z,102057.87890625
2022-12-18T00:59:19.507Z,102056.8671875
2022-12-18T01:00:19.468Z,102059.21484375
2022-12-18T01:01:19.820Z,102058.03125
2022-12-18T01:02:19.651Z,102061.57421875
2022-12-18T01:03:19.611Z,102059.296875
2022-12-18T01:04:22.498Z,102060.71875
2022-12-18T01:05:19.837Z,102062.37890625
2022-12-18T01:06:19.831Z,102062.34375
2022-12-18T01:07:19.512Z,102062.55078125
2022-12-18T01:08:19.549Z,102060.1796875
2022-12-18T01:09:19.558Z,102060.8984375
2022-12-18T01:10:19.551Z,102058.5859375
2022-12-18T01:11:20.071Z,102060.921875
2022-12-18T01:12:19.544Z,102062.6484375
2022-12-18T01:13:19.605Z,102063.390625
2022-12-18T01:14:19.560Z,102062.20703125
2022-12-18T01:15:22.614Z,102068.67578125
2022-12-18T01:16:19.855Z,102062.80859375
2022-12-18T01:17:19.566Z,102063.3125
2022-12-18T01:18:19.470Z,102060.56640625
2022-12-18T01:19:19.707Z,102065.7890625
2022-12-18T01:20:19.995Z,102063.2578125
2022-12-18T01:21:19.608Z,102063.8359375
2022-12-18T01:22:19.473Z,102065.01953125
2022-12-18T01:23:19.577Z,102068.984375
2022-12-18T01:24:19.472Z,102070.296875
2022-12-18T01:25:19.530Z,102071.95703125
2022-12-18T01:26:25.667Z,102066.1015625
2022-12-18T01:27:19.520Z,102073.078125
2022-12-18T01:28:19.637Z,102068.375
2022-12-18T01:29:19.559Z,102070.0703125
2022-12-18T01:30:19.460Z,102075.734375
2022-12-18T01:31:19.724Z,102071.91015625
2022-12-18T01:32:19.529Z,102077.33984375
2022-12-18T01:33:19.575Z,102081.18359375
2022-12-18T01:34:19.465Z,102080.31640625
2022-12-18T01:35:19.899Z,102079.9140625
2022-12-18T01:36:19.661Z,102075.25
2022-12-18T01:37:19.456Z,102081.0625
2022-12-18T01:38:19.590Z,102076.1328125
2022-12-18T01:39:19.545Z,102080.73828125
2022-12-18T01:40:19.545Z,102081.765625
2022-12-18T01:41:19.898Z,102086.19140625
2022-12-18T01:42:22.582Z,102094.5390625
2022-12-18T01:43:19.565Z,102098.12890625
2022-12-18T01:44:19.480Z,102099.09765625
2022-12-18T01:45:19.469Z,102101.4140625
2022-12-18T01:46:19.527Z,102100.08203125
2022-12-18T01:47:19.533Z,102097.1484375
2022-12-18T01:48:22.481Z,102097.88671875
2022-12-18T01:49:19.453Z,102096.21484375
2022-12-18T01:50:19.951Z,102094.1328125
2022-12-18T01:51:19.648Z,102091.29296875
2022-12-18T01:52:19.553Z,102086.3203125
2022-12-18T01:53:19.554Z,102082.07421875
2022-12-18T01:54:19.498Z,102076.54296875
2022-12-18T01:55:19.583Z,102071.4609375
2022-12-18T01:56:19.895Z,102071.953125
2022-12-18T01:57:19.561Z,102071.14453125
2022-12-18T01:58:19.613Z,102069.37109375
2022-12-18T01:59:22.487Z,102076.76953125
2022-12-18T02:00:19.562Z,102076.10546875
2022-12-18T02:01:19.752Z,102079.15234375
2022-12-18T02:02:19.698Z,102085.30078125
2022-12-18T02:03:19.528Z,102082.90234375
2022-12-18T02:04:19.468Z,102081.5
2022-12-18T02:05:19.828Z,102088.421875
2022-12-18T02:06:19.898Z,102082.828125
2022-12-18T02:07:19.691Z,102086.75
2022-12-18T02:08:19.544Z,102083.62109375
2022-12-18T02:09:19.499Z,102075.85546875
2022-12-18T02:10:22.456Z,102073.65625
2022-12-18T02:11:19.530Z,102073.109375
2022-12-18T02:12:19.472Z,102069.61328125
2022-12-18T02:13:19.521Z,102070.76171875
2022-12-18T02:14:19.602Z,102071.41015625
2022-12-18T02:15:19.549Z,102071.75
2022-12-18T02:16:19.936Z,102068.28515625
2022-12-18T02:17:19.591Z,102064.203125
2022-12-18T02:18:19.685Z,102065.484375
2022-12-18T02:19:19.534Z,102064.03515625
2022-12-18T02:20:19.896Z,102067.703125
2022-12-18T02:21:25.504Z,102069.12890625
2022-12-18T02:22:19.589Z,102072.39453125
2022-12-18T02:23:19.619Z,102070.65234375
2022-12-18T02:24:19.679Z,102072.33203125
2022-12-18T02:25:19.548Z,102070.8515625
2022-12-18T02:26:19.899Z,102069.73046875
2022-12-18T02:27:19.531Z,102070.765625
2022-12-18T02:28:19.461Z,102068.50390625
2022-12-18T02:29:19.463Z,102064.2734375
2022-12-18T02:30:19.472Z,102062.76953125
2022-12-18T02:31:20.062Z,102060.71484375
2022-12-18T02:32:22.451Z,102060.0859375
2022-12-18T02:33:19.578Z,102054.9609375
2022-12-18T02:34:19.545Z,102051.19140625
2022-12-18T02:35:19.900Z,102048.9765625
2022-12-18T02:36:19.835Z,102049.984375
2022-12-18T02:37:19.459Z,102049.51953125
2022-12-18T02:38:19.588Z,102054.171875
2022-12-18T02:39:19.489Z,102054.9453125
2022-12-18T02:40:19.580Z,102054.59765625
2022-12-18T02:41:19.838Z,102049.4609375
2022-12-18T02:42:19.472Z,102053.33984375
2022-12-18T02:43:22.609Z,102053.42578125
2022-12-18T02:44:19.678Z,102053.0078125
2022-12-18T02:45:19.465Z,102056.65625
2022-12-18T02:46:19.609Z,102059.96484375
2022-12-18T02:47:19.629Z,102061.671875
2022-12-18T02:48:19.668Z,102064.859375
2022-12-18T02:49:19.466Z,102066.05859375
2022-12-18T02:50:19.827Z,102067.83203125
2022-12-18T02:51:19.601Z,102068.9765625
2022-12-18T02:52:19.454Z,102069.40625
2022-12-18T02:53:19.525Z,102066.921875
2022-12-18T02:54:22.489Z,102060.14453125
2022-12-18T02:55:19.654Z,102061.55859375
2022-12-18T02:56:19.910Z,102057.80859375
2022-12-18T02:57:19.547Z,102054.23046875
2022-12-18T02:58:19.466Z,102050.546875
2022-12-18T02:59:19.529Z,102055.5625
2022-12-18T03:00:19.453Z,102055.34375
2022-12-18T03:01:20.077Z,102057.28125
2022-12-18T03:02:19.810Z,102059.21484375
2022-12-18T03:03:19.729Z,102057.51953125
2022-12-18T03:04:19.579Z,102061.2578125
2022-12-18T03:05:25.504Z,102055.8671875
2022-12-18T03:06:19.540Z,102056.21484375
2022-12-18T03:07:19.549Z,102058.01171875
2022-12-18T03:08:19.602Z,102054.6328125
2022-12-18T03:09:19.590Z,102064.1328125
2022-12-18T03:10:19.546Z,102067.328125
2022-12-18T03:11:19.465Z,102075.80859375
2022-12-18T03:12:19.565Z,102075.89453125
2022-12-18T03:13:19.466Z,102076.84765625
2022-12-18T03:14:19.464Z,102072.89453125
2022-12-18T03:15:19.576Z,102075.3046875
2022-12-18T03:16:25.637Z,102073.90625
2022-12-18T03:17:19.667Z,102074.4609375
2022-12-18T03:18:19.457Z,102067.53515625
2022-12-18T03:19:19.661Z,102060.56640625
2022-12-18T03:20:19.837Z,102063.65625
2022-12-18T03:21:19.469Z,102067.33203125
2022-12-18T03:22:19.468Z,102064.80859375
2022-12-18T03:23:21.479Z,102062.61328125
2022-12-18T03:24:19.467Z,102066.578125
2022-12-18T03:25:19.664Z,102062.5546875
2022-12-18T03:26:19.846Z,102060.3359375
2022-12-18T03:27:22.752Z,102059.640625
2022-12-18T03:28:19.633Z,102058.3515625
2022-12-18T03:29:19.651Z,102059.625
2022-12-18T03:30:19.432Z,102058.51171875
2022-12-18T03:31:19.628Z,102057.47265625
2022-12-18T03:32:19.554Z,102058.16796875
2022-12-18T03:33:19.459Z,102058.42578125
2022-12-18T03:34:19.616Z,102058.05078125
2022-12-18T03:35:19.828Z,102055.4375
2022-12-18T03:36:19.939Z,102058.55859375
2022-12-18T03:37:19.679Z,102059.80078125
2022-12-18T03:38:19.463Z,102062.70703125
2022-12-18T03:39:19.599Z,102057.69921875
2022-12-18T03:40:19.573Z,102059.82421875
2022-12-18T03:41:19.831Z,102061.421875
2022-12-18T03:42:19.546Z,102058.5859375
2022-12-18T03:43:22.517Z,102057.6328125
2022-12-18T03:44:19.679Z,102058.328125
2022-12-18T03:45:19.452Z,102062.76171875
2022-12-18T03:46:19.924Z,102058.25
2022-12-18T03:47:19.692Z,102056.80859375
2022-12-18T03:48:19.724Z,102060.17578125
2022-12-18T03:49:19.592Z,102058.4453125
2022-12-18T03:50:19.904Z,102054.4140625
2022-12-18T03:51:19.841Z,102055.9140625
2022-12-18T03:52:19.655Z,102054.125
2022-12-18T03:53:19.591Z,102057.21875
2022-12-18T03:54:22.531Z,102056.23046875
2022-12-18T03:55:19.644Z,102055.81640625
2022-12-18T03:56:19.841Z,102054.34765625
2022-12-18T03:57:19.640Z,102052.55859375
2022-12-18T03:58:19.589Z,102052.640625
2022-12-18T03:59:19.554Z,102049.4453125
2022-12-18T04:00:19.466Z,102050.48828125
2022-12-18T04:01:19.706Z,102047.65234375
2022-12-18T04:02:19.622Z,102047.06640625
2022-12-18T04:03:22.682Z,102046.58203125
2022-12-18T04:04:19.596Z,102046.70703125
2022-12-18T04:05:25.591Z,102053.40625
2022-12-18T04:06:19.938Z,102050.50390625
2022-12-18T04:07:19.635Z,102055.2109375
2022-12-18T04:08:19.543Z,102055.21875
2022-12-18T04:09:19.660Z,102058.0390625
2022-12-18T04:10:19.541Z,102062.19921875
2022-12-18T04:11:19.840Z,102063.58984375
2022-12-18T04:12:19.605Z,102061.1875
2022-12-18T04:13:19.532Z,102062.70703125
2022-12-18T04:14:19.589Z,102067.09765625
2022-12-18T04:15:19.683Z,102061.87109375
2022-12-18T04:16:25.498Z,102063.23828125
2022-12-18T04:17:19.641Z,102060.203125
2022-12-18T04:18:19.473Z,102055.171875
2022-12-18T04:19:19.602Z,102049.18359375
2022-12-18T04:20:19.837Z,102051.81640625
2022-12-18T04:21:19.824Z,102045.03125
2022-12-18T04:22:19.459Z,102044.78125
2022-12-18T04:23:19.595Z,102049.1640625
2022-12-18T04:24:19.638Z,102051.921875
2022-12-18T04:25:19.503Z,102051.08203125
2022-12-18T04:26:19.904Z,102051.87109375
2022-12-18T04:27:22.613Z,102056.671875
2022-12-18T04:28:19.518Z,102054.55078125
2022-12-18T04:29:19.542Z,102057.28125
2022-12-18T04:30:19.616Z,102056.33984375
2022-12-18T04:31:19.940Z,102054.24609375
2022-12-18T04:32:19.631Z,102051.59765625
2022-12-18T04:33:19.462Z,102051.7734375
2022-12-18T04:34:19.476Z,102053.40234375
2022-12-18T04:35:19.902Z,102049.7109375
2022-12-18T04:36:19.829Z,102050.01953125
2022-12-18T04:37:19.676Z,102052.99609375
2022-12-18T04:38:22.621Z,102048.93359375
2022-12-18T04:39:19.570Z,102051.625
2022-12-18T04:40:19.603Z,102052.36328125
2022-12-18T04:41:19.827Z,102049.6171875
2022-12-18T04:42:19.586Z,102049.734375
2022-12-18T04:43:19.684Z,102043.62109375
2022-12-18T04:44:19.571Z,102041.6640625
2022-12-18T04:45:19.452Z,102040.265625
2022-12-18T04:46:19.644Z,102036.41796875
2022-12-18T04:47:19.707Z,102038.1796875
2022-12-18T04:48:19.678Z,102040.25390625
2022-12-18T04:49:22.487Z,102037.22265625
2022-12-18T04:50:19.834Z,102041.07421875
2022-12-18T04:51:25.952Z,102040.84375
2022-12-18T04:52:19.674Z,102038.33984375
2022-12-18T04:53:19.547Z,102039.36328125
2022-12-18T04:54:19.478Z,102038.9453125
2022-12-18T04:55:19.546Z,102042.5625
2022-12-18T04:56:19.903Z,102039.10546875
2022-12-18T04:57:19.628Z,102041.07421875
2022-12-18T04:58:19.580Z,102045.37890625
2022-12-18T04:59:19.653Z,102045.9296875
2022-12-18T05:00:22.493Z,102044.3984375
2022-12-18T05:01:19.690Z,102041.9296875
2022-12-18T05:02:19.675Z,102038.8984375
2022-12-18T05:03:19.585Z,102039.20703125
2022-12-18T05:04:19.558Z,102043.12109375
2022-12-18T05:05:19.909Z,102043.57421875
2022-12-18T05:06:19.449Z,102043.28515625
2022-12-18T05:07:19.459Z,102039.26171875
2022-12-18T05:08:19.454Z,102040.19140625
2022-12-18T05:09:19.589Z,102035.859375
2022-12-18T05:10:19.511Z,102038.53125
2022-12-18T05:11:25.877Z,102042.76171875
2022-12-18T05:12:19.556Z,102044.66796875
2022-12-18T05:13:19.551Z,102047.80859375
2022-12-18T05:14:19.559Z,102051.984375
2022-12-18T05:15:19.464Z,102055.640625
2022-12-18T05:16:19.676Z,102058.66015625
2022-12-18T05:17:19.496Z,102063.35546875
2022-12-18T05:18:19.577Z,102062.00390625
2022-12-18T05:19:19.555Z,102063.19140625
2022-12-18T05:20:19.904Z,102064.67578125
2022-12-18T05:21:19.840Z,102062.6015625
2022-12-18T05:22:22.461Z,102060.5390625
2022-12-18T05:23:19.567Z,102065.7421875
2022-12-18T05:24:19.474Z,102060.63671875
2022-12-18T05:25:19.560Z,102060.21484375
2022-12-18T05:26:19.831Z,102060.00390625
2022-12-18T05:27:19.573Z,102062.5546875
2022-12-18T05:28:19.466Z,102060.84765625
2022-12-18T05:29:19.463Z,102058.9375
2022-12-18T05:30:19.452Z,102054.21484375
2022-12-18T05:31:19.909Z,102051.12109375
2022-12-18T05:32:19.625Z,102054.203125
2022-12-18T05:33:22.603Z,102053.05078125
2022-12-18T05:34:19.544Z,102060
2022-12-18T05:35:19.901Z,102060.6953125
2022-12-18T05:36:19.915Z,102059.80078125
2022-12-18T05:37:19.662Z,102058.6015625
2022-12-18T05:38:19.546Z,102061.1796875
2022-12-18T05:39:19.475Z,102062.62890625
2022-12-18T05:40:19.574Z,102063.71484375
2022-12-18T05:41:19.517Z,102059.578125
2022-12-18T05:42:19.622Z,102059.05859375
2022-12-18T05:43:21.419Z,102056.03515625
2022-12-18T05:44:19.607Z,102054.73046875
2022-12-18T05:45:19.469Z,102047.421875
2022-12-18T05:46:19.672Z,102039.42578125
2022-12-18T05:47:19.530Z,102037.5859375
2022-12-18T05:48:19.664Z,102038.00390625
2022-12-18T05:49:22.584Z,102033.8125
2022-12-18T05:50:19.832Z,102034.1328125
2022-12-18T05:51:19.830Z,102032.69140625
2022-12-18T05:52:19.457Z,102033.19921875
2022-12-18T05:53:19.462Z,102031.640625
2022-12-18T05:54:19.469Z,102036.02734375
2022-12-18T05:55:19.527Z,102038.2890625
2022-12-18T05:56:19.568Z,102039.671875
2022-12-18T05:57:19.462Z,102045.87109375
2022-12-18T05:58:19.459Z,102044.59765625
2022-12-18T05:59:19.606Z,102042.86328125
2022-12-18T06:00:19.592Z,102039.6796875
2022-12-18T06:01:19.636Z,102039.84765625
2022-12-18T06:02:19.670Z,102041.6484375
2022-12-18T06:03:19.569Z,102040.5078125
2022-12-18T06:04:19.573Z,102042.63671875
2022-12-18T06:05:22.614Z,102042.61328125
2022-12-18T06:06:19.579Z,102046.23828125
2022-12-18T06:07:19.466Z,102047.66015625
2022-12-18T06:08:19.455Z,102050.6171875
2022-12-18T06:09:19.455Z,102051.109375
2022-12-18T06:10:19.439Z,102053.921875
2022-12-18T06:11:19.517Z,102053.1640625
2022-12-18T06:12:19.475Z,102054.5
2022-12-18T06:13:19.565Z,102055.69140625
2022-12-18T06:14:19.572Z,102059.1171875
2022-12-18T06:15:19.671Z,102058.23046875
2022-12-18T06:16:19.553Z,102056.4765625
2022-12-18T06:17:19.597Z,102057.1875
2022-12-18T06:18:19.575Z,102055.87109375
2022-12-18T06:19:19.489Z,102059.24609375
2022-12-18T06:20:19.621Z,102054.85546875
2022-12-18T06:21:22.581Z,102058.8984375
2022-12-18T06:22:19.606Z,102056.296875
2022-12-18T06:23:19.525Z,102057.00390625
2022-12-18T06:24:19.475Z,102063.05859375
2022-12-18T06:25:19.586Z,102064.6640625
2022-12-18T06:26:24.655Z,102062.5234375
2022-12-18T06:27:19.687Z,102067.4140625
2022-12-18T06:28:19.446Z,102068.90234375
2022-12-18T06:29:19.485Z,102066.734375
2022-12-18T06:30:19.555Z,102065.09765625
2022-12-18T06:31:19.727Z,102068.70703125
2022-12-18T06:32:19.495Z,102071.6875
2022-12-18T06:33:19.487Z,102077.72265625
2022-12-18T06:34:19.686Z,102073.53125
2022-12-18T06:35:19.592Z,102077.22265625
2022-12-18T06:36:19.585Z,102079.25
2022-12-18T06:37:22.568Z,102078.7734375
2022-12-18T06:38:19.688Z,102084.40234375
2022-12-18T06:39:19.542Z,102083.0703125
2022-12-18T06:40:19.489Z,102089.41796875
2022-12-18T06:41:19.440Z,102093.25
2022-12-18T06:42:19.474Z,102094.46484375
2022-12-18T06:43:19.563Z,102092.69140625
2022-12-18T06:44:19.475Z,102089.078125
2022-12-18T06:45:19.569Z,102090.03515625
2022-12-18T06:46:19.535Z,102086.58203125
2022-12-18T06:47:19.565Z,102084.734375
2022-12-18T06:48:22.564Z,102093.04296875
2022-12-18T06:49:19.682Z,102088.19921875
2022-12-18T06:50:19.642Z,102089.15234375
2022-12-18T06:51:19.563Z,102090.66796875
2022-12-18T06:52:19.664Z,102089.80078125
2022-12-18T06:53:19.537Z,102089.25390625
2022-12-18T06:54:19.466Z,102087.15625
2022-12-18T06:55:19.557Z,102086.58984375
2022-12-18T06:56:19.466Z,102093.921875
2022-12-18T06:57:19.452Z,102093.28515625
2022-12-18T06:58:19.458Z,102093.50390625
2022-12-18T06:59:22.616Z,102093.50390625
2022-12-18T07:00:19.677Z,102098.51171875
2022-12-18T07:01:19.682Z,102095.57421875
2022-12-18T07:02:19.763Z,102095.90234375
2022-12-18T07:03:19.645Z,102097.0625
2022-12-18T07:04:19.587Z,102097.625
2022-12-18T07:05:19.824Z,102097.03125
2022-12-18T07:06:19.591Z,102093.70703125
2022-12-18T07:07:19.705Z,102100.59375
2022-12-18T07:08:19.533Z,102102.15625
2022-12-18T07:09:19.468Z,102093.0390625
2022-12-18T07:10:19.568Z,102095.53125
2022-12-18T07:11:19.830Z,102096.3515625
2022-12-18T07:12:19.487Z,102102.49609375
2022-12-18T07:13:19.609Z,102101.65625
2022-12-18T07:14:19.516Z,102097.27734375
2022-12-18T07:15:55.306Z,102104.03515625
2022-12-18T07:16:24.716Z,102106.984375
2022-12-18T07:17:19.450Z,102111.3359375
2022-12-18T07:18:19.547Z,102116.37109375
2022-12-18T07:19:19.539Z,102116.0234375
2022-12-18T07:20:19.892Z,102115.53515625
2022-12-18T07:21:22.631Z,102116.91796875
2022-12-18T07:22:19.538Z,102120.68359375
2022-12-18T07:23:19.579Z,102115.2890625
2022-12-18T07:24:19.469Z,102119.046875
2022-12-18T07:25:19.569Z,102115.70703125
2022-12-18T07:26:19.666Z,102111.828125
2022-12-18T07:27:19.583Z,102107.6640625
2022-12-18T07:28:19.605Z,102104.80078125
2022-12-18T07:29:19.571Z,102105.38671875
2022-12-18T07:30:19.605Z,102105.8203125
2022-12-18T07:31:19.713Z,102097.97265625
2022-12-18T07:32:22.616Z,102098.9296875
2022-12-18T07:33:19.673Z,102094.84765625
2022-12-18T07:34:19.628Z,102098.46875
2022-12-18T07:35:24.783Z,102094.83984375
2022-12-18T07:36:19.968Z,102096.0234375
2022-12-18T07:37:19.581Z,102091.51171875
2022-12-18T07:38:19.553Z,102090.34375
2022-12-18T07:39:19.578Z,102085.59375
2022-12-18T07:40:19.635Z,102089.46484375
2022-12-18T07:41:19.905Z,102090.0546875
2022-12-18T07:42:19.652Z,102091.51953125
2022-12-18T07:43:22.516Z,102097.859375
2022-12-18T07:44:19.650Z,102099.95703125
2022-12-18T07:45:19.452Z,102102.24609375
2022-12-18T07:46:19.667Z,102102.01171875
2022-12-18T07:47:19.651Z,102104.18359375
2022-12-18T07:48:19.506Z,102096.15234375
2022-12-18T07:49:19.544Z,102105.890625
2022-12-18T07:50:19.597Z,102104.19140625
2022-12-18T07:51:19.655Z,102109.546875
2022-12-18T07:52:25.596Z,102103.65625
2022-12-18T07:53:19.569Z,102105.37890625
2022-12-18T07:54:22.509Z,102106.83203125
2022-12-18T07:55:19.450Z,102107.35546875
2022-12-18T07:56:28.090Z,102108.28125
2022-12-18T07:57:48.461Z,102109.27734375
2022-12-18T07:58:19.458Z,102107.0546875
2022-12-18T07:59:19.680Z,102108.1640625
2022-12-18T08:00:19.467Z,102107.7734375
2022-12-18T08:01:19.711Z,102104.9921875
2022-12-18T08:02:19.730Z,102109.4453125
2022-12-18T08:03:19.748Z,102106.62890625
2022-12-18T08:04:19.529Z,102108.97265625
2022-12-18T08:05:25.606Z,102107.265625
2022-12-18T08:06:22.473Z,102105.8125
2022-12-18T08:07:19.572Z,102103.5078125
2022-12-18T08:08:19.707Z,102104.01171875
2022-12-18T08:09:19.483Z,102108.203125
2022-12-18T08:10:19.689Z,102107.16796875
2022-12-18T08:11:19.910Z,102113.65625
2022-12-18T08:12:19.532Z,102112.82421875
2022-12-18T08:13:19.462Z,102101.421875
2022-12-18T08:14:19.631Z,102101.81640625
2022-12-18T08:15:19.621Z,102099.80078125
2022-12-18T08:16:20.039Z,102100.6484375
2022-12-18T08:17:19.472Z,102100.62890625
2022-12-18T08:18:19.553Z,102100.83984375
2022-12-18T08:19:19.474Z,102101.6796875
2022-12-18T08:20:19.896Z,102103.36328125
2022-12-18T08:21:22.530Z,102106.67578125
2022-12-18T08:22:19.532Z,102100.87109375
2022-12-18T08:23:19.572Z,102104.3671875
2022-12-18T08:24:19.468Z,102106.2109375
2022-12-18T08:25:19.452Z,102108.359375
2022-12-18T08:26:19.502Z,102110.4375
2022-12-18T08:27:30.324Z,102112.4609375
2022-12-18T08:28:19.586Z,102117.6796875
2022-12-18T08:29:21.699Z,102121.75
2022-12-18T08:30:19.465Z,102114.7890625
2022-12-18T08:31:19.755Z,102110.78515625
2022-12-18T08:32:22.543Z,102113.296875
2022-12-18T08:33:19.557Z,102113.63671875
2022-12-18T08:34:19.611Z,102112.03125
2022-12-18T08:35:19.834Z,102110.31640625
2022-12-18T08:36:19.620Z,102109.85546875
2022-12-18T08:37:19.590Z,102106.515625
2022-12-18T08:38:19.568Z,102104.1875
2022-12-18T08:39:19.612Z,102102.828125
2022-12-18T08:40:19.688Z,102101.36328125
2022-12-18T08:41:19.843Z,102093.97265625
2022-12-18T08:42:19.564Z,102093.546875
2022-12-18T08:43:22.468Z,102092.99609375
2022-12-18T08:44:19.570Z,102092.90625
2022-12-18T08:45:19.597Z,102093.89453125
2022-12-18T08:46:19.716Z,102100.16796875
2022-12-18T08:47:19.447Z,102090.01171875
2022-12-18T08:48:22.139Z,102088.21875
2022-12-18T08:49:19.578Z,102088.0078125
2022-12-18T08:50:19.900Z,102079.66015625
2022-12-18T08:51:19.842Z,102081.82421875
2022-12-18T08:52:19.557Z,102079.234375
2022-12-18T08:53:19.493Z,102076.73046875
2022-12-18T08:54:22.551Z,102075.1015625
2022-12-18T08:55:19.641Z,102074.296875
2022-12-18T08:56:19.832Z,102066.921875
2022-12-18T08:57:19.570Z,102066.8203125
2022-12-18T08:58:19.573Z,102069.3359375
2022-12-18T08:59:20.137Z,102067.40234375
2022-12-18T09:00:19.567Z,102068.0078125
2022-12-18T09:01:20.036Z,102070.19140625
2022-12-18T09:02:19.859Z,102068.16796875
2022-12-18T09:03:19.493Z,102068.76953125
2022-12-18T09:04:19.545Z,102068.515625
2022-12-18T09:05:22.605Z,102069.8046875
2022-12-18T09:06:19.571Z,102075.45703125
2022-12-18T09:07:19.594Z,102080.66015625
2022-12-18T09:08:19.675Z,102079.7265625
2022-12-18T09:09:19.456Z,102084.2265625
2022-12-18T09:10:19.501Z,102087.02734375
2022-12-18T09:11:19.448Z,102088.83203125
2022-12-18T09:12:19.494Z,102087.78125
2022-12-18T09:13:19.687Z,102086.2734375
2022-12-18T09:14:19.664Z,102088.71875
2022-12-18T09:15:19.488Z,102091.03515625
2022-12-18T09:16:31.504Z,102094.5625
2022-12-18T09:17:19.612Z,102094.96875
2022-12-18T09:18:19.553Z,102098.671875
2022-12-18T09:19:19.629Z,102093.05859375
2022-12-18T09:20:19.907Z,102096.19140625
2022-12-18T09:21:19.831Z,102098.41015625
2022-12-18T09:22:19.458Z,102090.5625
2022-12-18T09:23:19.670Z,102088.828125
2022-12-18T09:24:19.502Z,102088.7109375
2022-12-18T09:25:19.563Z,102092.7421875
2022-12-18T09:26:19.844Z,102089.203125
2022-12-18T09:27:22.546Z,102092.015625
2022-12-18T09:28:19.539Z,102088.7890625
2022-12-18T09:29:19.581Z,102085.0625
2022-12-18T09:30:19.688Z,102084.0703125
2022-12-18T09:31:19.627Z,102083.41015625
2022-12-18T09:32:22.514Z,102082.6640625
2022-12-18T09:33:19.602Z,102080.81640625
2022-12-18T09:34:19.486Z,102086.74609375
2022-12-18T09:35:19.498Z,102088.74609375
2022-12-18T09:36:19.912Z,102090.9296875
2022-12-18T09:37:19.527Z,102089.33203125
2022-12-18T09:38:22.649Z,102089.7109375
2022-12-18T09:39:21.856Z,102084.93359375
2022-12-18T09:40:19.456Z,102086.73046875
2022-12-18T09:41:19.444Z,102088.62109375
2022-12-18T09:42:19.612Z,102088.87890625
2022-12-18T09:43:19.701Z,102086.484375
2022-12-18T09:44:19.722Z,102084.5
2022-12-18T09:45:19.472Z,102083.5078125
2022-12-18T09:46:20.027Z,102085.74609375
2022-12-18T09:47:19.650Z,102084.71875
2022-12-18T09:48:19.459Z,102085.71484375
2022-12-18T09:49:22.498Z,102085.42578125
2022-12-18T09:50:19.834Z,102084.46875
2022-12-18T09:51:19.557Z,102091.94140625
2022-12-18T09:52:19.487Z,102091.29296875
2022-12-18T09:53:19.487Z,102095.1171875
2022-12-18T09:54:19.459Z,102087.9375
2022-12-18T09:55:19.514Z,102091.9921875
2022-12-18T09:56:19.910Z,102091.03125
2022-12-18T09:57:19.670Z,102086.5859375
2022-12-18T09:58:19.686Z,102085.91015625